sensor_id;sensor_type;location;lat;lon;timestamp;P1;durP1;ratioP1;P2;durP2;ratioP2
23678;SDS011;12016;51.668;6.874;2023-03-14T00:04:38;6.72;;;3.10;;
23678;SDS011;12016;51.668;6.874;2023-03-14T00:10:40;7.15;;;3.00;;
23678;SDS011;12016;51.668;6.874;2023-03-14T00:16:42;6.32;;;2.63;;
23678;SDS011;12016;51.668;6.874;2023-03-14T00:22:47;5.47;;;2.80;;
23678;SDS011;12016;51.668;6.874;2023-03-14T00:28:52;6.47;;;2.60;;
23678;SDS011;12016;51.668;6.874;2023-03-14T00:34:56;5.57;;;2.40;;
23678;SDS011;12016;51.668;6.874;2023-03-14T00:41:08;4.80;;;2.40;;
23678;SDS011;12016;51.668;6.874;2023-03-14T00:47:11;5.27;;;2.10;;
23678;SDS011;12016;51.668;6.874;2023-03-14T00:53:16;5.37;;;2.10;;
23678;SDS011;12016;51.668;6.874;2023-03-14T00:59:19;5.38;;;2.10;;
23678;SDS011;12016;51.668;6.874;2023-03-14T01:05:21;5.30;;;2.20;;
23678;SDS011;12016;51.668;6.874;2023-03-14T01:11:25;6.22;;;2.65;;
23678;SDS011;12016;51.668;6.874;2023-03-14T01:17:33;6.00;;;2.90;;
23678;SDS011;12016;51.668;6.874;2023-03-14T01:23:35;7.20;;;2.67;;
23678;SDS011;12016;51.668;6.874;2023-03-14T01:29:37;4.83;;;2.00;;
23678;SDS011;12016;51.668;6.874;2023-03-14T01:35:39;4.35;;;1.80;;
23678;SDS011;12016;51.668;6.874;2023-03-14T01:41:42;5.30;;;1.88;;
23678;SDS011;12016;51.668;6.874;2023-03-14T01:47:44;3.53;;;1.60;;
23678;SDS011;12016;51.668;6.874;2023-03-14T01:53:46;5.10;;;1.95;;
23678;SDS011;12016;51.668;6.874;2023-03-14T01:59:57;4.37;;;1.73;;
23678;SDS011;12016;51.668;6.874;2023-03-14T02:06:13;4.40;;;1.80;;
23678;SDS011;12016;51.668;6.874;2023-03-14T02:12:20;3.85;;;1.70;;
23678;SDS011;12016;51.668;6.874;2023-03-14T02:18:38;4.35;;;1.70;;
23678;SDS011;12016;51.668;6.874;2023-03-14T02:31:47;5.28;;;1.80;;
23678;SDS011;12016;51.668;6.874;2023-03-14T02:37:52;3.00;;;1.60;;
23678;SDS011;12016;51.668;6.874;2023-03-14T02:43:55;4.95;;;1.50;;
23678;SDS011;12016;51.668;6.874;2023-03-14T02:50:00;4.95;;;1.80;;
23678;SDS011;12016;51.668;6.874;2023-03-14T02:56:05;3.00;;;1.60;;
23678;SDS011;12016;51.668;6.874;2023-03-14T03:02:08;5.20;;;1.60;;
23678;SDS011;12016;51.668;6.874;2023-03-14T03:08:10;4.68;;;1.85;;
23678;SDS011;12016;51.668;6.874;2023-03-14T03:14:12;4.72;;;1.85;;
23678;SDS011;12016;51.668;6.874;2023-03-14T03:20:15;5.87;;;1.97;;
23678;SDS011;12016;51.668;6.874;2023-03-14T03:26:17;4.37;;;1.77;;
23678;SDS011;12016;51.668;6.874;2023-03-14T03:32:18;4.83;;;2.00;;
23678;SDS011;12016;51.668;6.874;2023-03-14T03:38:20;6.27;;;2.30;;
23678;SDS011;12016;51.668;6.874;2023-03-14T03:44:25;6.60;;;2.40;;
23678;SDS011;12016;51.668;6.874;2023-03-14T03:50:27;7.27;;;2.60;;
23678;SDS011;12016;51.668;6.874;2023-03-14T03:56:29;5.63;;;2.42;;
23678;SDS011;12016;51.668;6.874;2023-03-14T04:02:31;5.47;;;2.20;;
23678;SDS011;12016;51.668;6.874;2023-03-14T04:08:33;5.82;;;2.15;;
23678;SDS011;12016;51.668;6.874;2023-03-14T04:14:36;5.00;;;2.17;;
23678;SDS011;12016;51.668;6.874;2023-03-14T04:20:55;4.67;;;2.13;;
23678;SDS011;12016;51.668;6.874;2023-03-14T04:27:07;5.03;;;2.10;;
23678;SDS011;12016;51.668;6.874;2023-03-14T04:33:09;5.55;;;2.20;;
23678;SDS011;12016;51.668;6.874;2023-03-14T04:39:18;4.97;;;2.40;;
23678;SDS011;12016;51.668;6.874;2023-03-14T04:45:27;6.05;;;2.45;;
23678;SDS011;12016;51.668;6.874;2023-03-14T04:51:32;6.63;;;2.40;;
23678;SDS011;12016;51.668;6.874;2023-03-14T04:57:35;7.32;;;2.60;;
23678;SDS011;12016;51.668;6.874;2023-03-14T05:03:37;4.28;;;2.00;;
23678;SDS011;12016;51.668;6.874;2023-03-14T05:09:59;3.87;;;1.60;;
23678;SDS011;12016;51.668;6.874;2023-03-14T05:16:23;2.92;;;1.48;;
23678;SDS011;12016;51.668;6.874;2023-03-14T05:22:25;3.47;;;1.40;;
23678;SDS011;12016;51.668;6.874;2023-03-14T05:28:57;3.28;;;1.30;;
23678;SDS011;12016;51.668;6.874;2023-03-14T05:35:09;4.00;;;1.40;;
23678;SDS011;12016;51.668;6.874;2023-03-14T05:41:27;1.73;;;1.20;;
23678;SDS011;12016;51.668;6.874;2023-03-14T05:47:45;2.45;;;1.30;;
23678;SDS011;12016;51.668;6.874;2023-03-14T05:54:06;3.13;;;1.40;;
23678;SDS011;12016;51.668;6.874;2023-03-14T06:00:19;1.70;;;1.25;;
23678;SDS011;12016;51.668;6.874;2023-03-14T06:06:47;2.45;;;1.45;;
23678;SDS011;12016;51.668;6.874;2023-03-14T06:12:50;2.00;;;1.30;;
23678;SDS011;12016;51.668;6.874;2023-03-14T06:18:52;3.28;;;1.50;;
23678;SDS011;12016;51.668;6.874;2023-03-14T06:24:56;2.17;;;1.33;;
23678;SDS011;12016;51.668;6.874;2023-03-14T06:31:00;3.10;;;1.73;;
23678;SDS011;12016;51.668;6.874;2023-03-14T06:37:07;2.28;;;1.58;;
23678;SDS011;12016;51.668;6.874;2023-03-14T06:43:08;2.58;;;1.90;;
23678;SDS011;12016;51.668;6.874;2023-03-14T06:49:13;2.55;;;1.83;;
23678;SDS011;12016;51.668;6.874;2023-03-14T06:55:16;2.50;;;1.73;;
23678;SDS011;12016;51.668;6.874;2023-03-14T07:01:22;2.20;;;1.80;;
23678;SDS011;12016;51.668;6.874;2023-03-14T07:07:28;2.28;;;1.70;;
23678;SDS011;12016;51.668;6.874;2023-03-14T07:13:30;2.00;;;1.80;;
23678;SDS011;12016;51.668;6.874;2023-03-14T07:19:37;2.22;;;2.00;;
23678;SDS011;12016;51.668;6.874;2023-03-14T07:25:42;2.22;;;1.80;;
23678;SDS011;12016;51.668;6.874;2023-03-14T07:31:44;2.00;;;1.80;;
23678;SDS011;12016;51.668;6.874;2023-03-14T07:37:51;1.98;;;1.75;;
23678;SDS011;12016;51.668;6.874;2023-03-14T07:44:00;3.45;;;2.30;;
23678;SDS011;12016;51.668;6.874;2023-03-14T07:50:04;2.67;;;2.33;;
23678;SDS011;12016;51.668;6.874;2023-03-14T07:56:06;2.50;;;2.30;;
23678;SDS011;12016;51.668;6.874;2023-03-14T08:02:10;2.08;;;1.90;;
23678;SDS011;12016;51.668;6.874;2023-03-14T08:08:13;2.10;;;1.90;;
23678;SDS011;12016;51.668;6.874;2023-03-14T08:14:15;1.70;;;1.60;;
23678;SDS011;12016;51.668;6.874;2023-03-14T08:20:17;1.77;;;1.60;;
23678;SDS011;12016;51.668;6.874;2023-03-14T08:26:20;1.90;;;1.70;;
23678;SDS011;12016;51.668;6.874;2023-03-14T08:32:21;2.08;;;1.95;;
23678;SDS011;12016;51.668;6.874;2023-03-14T08:38:25;1.70;;;1.60;;
23678;SDS011;12016;51.668;6.874;2023-03-14T08:44:27;2.00;;;1.80;;
23678;SDS011;12016;51.668;6.874;2023-03-14T08:50:28;2.40;;;1.70;;
23678;SDS011;12016;51.668;6.874;2023-03-14T08:56:30;2.38;;;1.90;;
23678;SDS011;12016;51.668;6.874;2023-03-14T09:02:32;9.10;;;2.75;;
23678;SDS011;12016;51.668;6.874;2023-03-14T09:08:34;1.48;;;1.10;;
23678;SDS011;12016;51.668;6.874;2023-03-14T09:14:38;2.27;;;1.33;;
23678;SDS011;12016;51.668;6.874;2023-03-14T09:20:40;2.30;;;1.20;;
23678;SDS011;12016;51.668;6.874;2023-03-14T09:26:42;1.25;;;1.10;;
23678;SDS011;12016;51.668;6.874;2023-03-14T09:32:44;1.60;;;1.20;;
23678;SDS011;12016;51.668;6.874;2023-03-14T09:38:46;1.60;;;1.20;;
23678;SDS011;12016;51.668;6.874;2023-03-14T09:51:02;1.67;;;1.10;;
23678;SDS011;12016;51.668;6.874;2023-03-14T09:57:11;1.30;;;1.20;;
23678;SDS011;12016;51.668;6.874;2023-03-14T10:03:23;1.50;;;1.20;;
23678;SDS011;12016;51.668;6.874;2023-03-14T10:09:28;1.20;;;1.10;;
23678;SDS011;12016;51.668;6.874;2023-03-14T10:15:31;1.90;;;1.27;;
23678;SDS011;12016;51.668;6.874;2023-03-14T10:21:35;1.63;;;1.20;;
23678;SDS011;12016;51.668;6.874;2023-03-14T10:27:54;2.47;;;1.10;;
23678;SDS011;12016;51.668;6.874;2023-03-14T10:34:00;1.65;;;1.17;;
23678;SDS011;12016;51.668;6.874;2023-03-14T10:40:12;1.50;;;0.95;;
23678;SDS011;12016;51.668;6.874;2023-03-14T10:46:17;1.33;;;1.07;;
23678;SDS011;12016;51.668;6.874;2023-03-14T10:52:46;1.20;;;1.10;;
23678;SDS011;12016;51.668;6.874;2023-03-14T10:59:03;1.88;;;1.10;;
23678;SDS011;12016;51.668;6.874;2023-03-14T11:05:15;1.17;;;0.90;;
23678;SDS011;12016;51.668;6.874;2023-03-14T11:11:27;2.10;;;1.20;;
23678;SDS011;12016;51.668;6.874;2023-03-14T11:17:38;2.20;;;1.30;;
23678;SDS011;12016;51.668;6.874;2023-03-14T11:30:17;2.30;;;1.20;;
23678;SDS011;12016;51.668;6.874;2023-03-14T11:36:22;3.23;;;1.33;;
23678;SDS011;12016;51.668;6.874;2023-03-14T11:42:41;2.30;;;1.13;;
23678;SDS011;12016;51.668;6.874;2023-03-14T11:49:05;3.25;;;1.30;;
23678;SDS011;12016;51.668;6.874;2023-03-14T12:01:30;3.72;;;1.40;;
23678;SDS011;12016;51.668;6.874;2023-03-14T12:07:43;4.88;;;1.60;;
23678;SDS011;12016;51.668;6.874;2023-03-14T12:14:43;3.73;;;1.53;;
23678;SDS011;12016;51.668;6.874;2023-03-14T12:20:39;4.47;;;1.80;;
23678;SDS011;12016;51.668;6.874;2023-03-14T12:26:50;6.15;;;2.10;;
23678;SDS011;12016;51.668;6.874;2023-03-14T12:39:13;8.40;;;2.43;;
23678;SDS011;12016;51.668;6.874;2023-03-14T12:51:37;10.03;;;2.80;;
23678;SDS011;12016;51.668;6.874;2023-03-14T13:03:58;8.57;;;2.78;;
23678;SDS011;12016;51.668;6.874;2023-03-14T13:10:19;11.60;;;3.17;;
23678;SDS011;12016;51.668;6.874;2023-03-14T13:16:23;8.77;;;2.83;;
23678;SDS011;12016;51.668;6.874;2023-03-14T13:22:26;11.52;;;3.30;;
23678;SDS011;12016;51.668;6.874;2023-03-14T13:28:30;9.48;;;2.90;;
23678;SDS011;12016;51.668;6.874;2023-03-14T13:34:33;10.07;;;2.95;;
23678;SDS011;12016;51.668;6.874;2023-03-14T13:40:36;9.18;;;2.50;;
23678;SDS011;12016;51.668;6.874;2023-03-14T13:46:37;7.50;;;2.30;;
23678;SDS011;12016;51.668;6.874;2023-03-14T13:52:40;8.90;;;3.50;;
23678;SDS011;12016;51.668;6.874;2023-03-14T13:58:41;6.93;;;2.30;;
23678;SDS011;12016;51.668;6.874;2023-03-14T14:04:44;6.32;;;2.10;;
23678;SDS011;12016;51.668;6.874;2023-03-14T14:10:49;6.10;;;2.20;;
23678;SDS011;12016;51.668;6.874;2023-03-14T14:16:53;4.10;;;1.60;;
23678;SDS011;12016;51.668;6.874;2023-03-14T14:22:56;4.27;;;1.90;;
23678;SDS011;12016;51.668;6.874;2023-03-14T14:29:03;5.22;;;1.80;;
23678;SDS011;12016;51.668;6.874;2023-03-14T14:35:08;6.13;;;2.17;;
23678;SDS011;12016;51.668;6.874;2023-03-14T14:41:26;6.37;;;2.10;;
23678;SDS011;12016;51.668;6.874;2023-03-14T14:47:29;4.43;;;1.70;;
23678;SDS011;12016;51.668;6.874;2023-03-14T14:53:42;4.05;;;1.60;;
23678;SDS011;12016;51.668;6.874;2023-03-14T14:59:44;5.30;;;1.60;;
23678;SDS011;12016;51.668;6.874;2023-03-14T15:05:49;4.28;;;1.77;;
23678;SDS011;12016;51.668;6.874;2023-03-14T15:11:51;4.57;;;1.60;;
23678;SDS011;12016;51.668;6.874;2023-03-14T15:17:53;3.85;;;1.50;;
23678;SDS011;12016;51.668;6.874;2023-03-14T15:23:55;5.07;;;1.70;;
23678;SDS011;12016;51.668;6.874;2023-03-14T15:29:57;3.75;;;1.50;;
23678;SDS011;12016;51.668;6.874;2023-03-14T15:36:00;4.17;;;1.57;;
23678;SDS011;12016;51.668;6.874;2023-03-14T15:42:02;3.45;;;1.55;;
23678;SDS011;12016;51.668;6.874;2023-03-14T15:48:04;2.47;;;1.50;;
23678;SDS011;12016;51.668;6.874;2023-03-14T15:54:11;3.67;;;1.50;;
23678;SDS011;12016;51.668;6.874;2023-03-14T16:00:16;3.30;;;1.50;;
23678;SDS011;12016;51.668;6.874;2023-03-14T16:06:20;3.08;;;1.52;;
23678;SDS011;12016;51.668;6.874;2023-03-14T16:12:22;3.67;;;1.53;;
23678;SDS011;12016;51.668;6.874;2023-03-14T16:18:32;3.40;;;1.40;;
23678;SDS011;12016;51.668;6.874;2023-03-14T16:24:35;4.00;;;1.70;;
23678;SDS011;12016;51.668;6.874;2023-03-14T16:30:39;3.80;;;1.60;;
23678;SDS011;12016;51.668;6.874;2023-03-14T16:36:44;4.03;;;1.40;;
23678;SDS011;12016;51.668;6.874;2023-03-14T16:42:48;4.57;;;1.60;;
23678;SDS011;12016;51.668;6.874;2023-03-14T16:49:10;3.73;;;1.57;;
23678;SDS011;12016;51.668;6.874;2023-03-14T16:55:11;3.90;;;1.70;;
23678;SDS011;12016;51.668;6.874;2023-03-14T17:01:13;3.90;;;1.60;;
23678;SDS011;12016;51.668;6.874;2023-03-14T17:07:18;4.30;;;1.70;;
23678;SDS011;12016;51.668;6.874;2023-03-14T17:13:22;4.90;;;1.80;;
23678;SDS011;12016;51.668;6.874;2023-03-14T17:19:26;4.93;;;1.73;;
23678;SDS011;12016;51.668;6.874;2023-03-14T17:25:27;5.40;;;1.80;;
23678;SDS011;12016;51.668;6.874;2023-03-14T17:31:29;4.63;;;1.80;;
23678;SDS011;12016;51.668;6.874;2023-03-14T17:37:31;4.90;;;2.20;;
23678;SDS011;12016;51.668;6.874;2023-03-14T17:43:33;5.27;;;1.90;;
23678;SDS011;12016;51.668;6.874;2023-03-14T17:49:34;5.07;;;1.93;;
23678;SDS011;12016;51.668;6.874;2023-03-14T17:55:36;5.90;;;1.80;;
23678;SDS011;12016;51.668;6.874;2023-03-14T18:01:38;4.30;;;1.90;;
23678;SDS011;12016;51.668;6.874;2023-03-14T18:07:41;4.37;;;1.73;;
23678;SDS011;12016;51.668;6.874;2023-03-14T18:13:43;5.27;;;1.87;;
23678;SDS011;12016;51.668;6.874;2023-03-14T18:19:45;4.10;;;1.80;;
23678;SDS011;12016;51.668;6.874;2023-03-14T18:25:47;4.78;;;1.70;;
23678;SDS011;12016;51.668;6.874;2023-03-14T18:31:50;5.47;;;1.80;;
23678;SDS011;12016;51.668;6.874;2023-03-14T18:37:52;5.82;;;1.90;;
23678;SDS011;12016;51.668;6.874;2023-03-14T18:43:53;6.63;;;1.88;;
23678;SDS011;12016;51.668;6.874;2023-03-14T18:49:55;8.10;;;2.58;;
23678;SDS011;12016;51.668;6.874;2023-03-14T18:55:57;6.32;;;2.38;;
23678;SDS011;12016;51.668;6.874;2023-03-14T19:02:00;6.85;;;2.40;;
23678;SDS011;12016;51.668;6.874;2023-03-14T19:08:01;6.18;;;1.88;;
23678;SDS011;12016;51.668;6.874;2023-03-14T19:14:04;5.88;;;2.10;;
23678;SDS011;12016;51.668;6.874;2023-03-14T19:20:06;7.07;;;2.47;;
23678;SDS011;12016;51.668;6.874;2023-03-14T19:26:09;7.33;;;2.80;;
23678;SDS011;12016;51.668;6.874;2023-03-14T19:32:11;6.78;;;2.67;;
23678;SDS011;12016;51.668;6.874;2023-03-14T19:38:14;8.13;;;2.55;;
23678;SDS011;12016;51.668;6.874;2023-03-14T19:44:16;5.63;;;2.55;;
23678;SDS011;12016;51.668;6.874;2023-03-14T19:50:21;7.05;;;2.40;;
23678;SDS011;12016;51.668;6.874;2023-03-14T19:56:23;7.80;;;3.50;;
23678;SDS011;12016;51.668;6.874;2023-03-14T20:02:25;6.60;;;2.90;;
23678;SDS011;12016;51.668;6.874;2023-03-14T20:08:29;8.27;;;2.67;;
23678;SDS011;12016;51.668;6.874;2023-03-14T20:14:32;6.47;;;2.43;;
23678;SDS011;12016;51.668;6.874;2023-03-14T20:20:35;6.68;;;2.42;;
23678;SDS011;12016;51.668;6.874;2023-03-14T20:26:41;7.75;;;2.53;;
23678;SDS011;12016;51.668;6.874;2023-03-14T20:32:44;6.60;;;2.60;;
23678;SDS011;12016;51.668;6.874;2023-03-14T20:38:46;6.68;;;2.40;;
23678;SDS011;12016;51.668;6.874;2023-03-14T20:44:54;7.90;;;2.30;;
23678;SDS011;12016;51.668;6.874;2023-03-14T20:50:57;6.18;;;2.20;;
23678;SDS011;12016;51.668;6.874;2023-03-14T20:57:01;6.22;;;2.22;;
23678;SDS011;12016;51.668;6.874;2023-03-14T21:03:03;6.57;;;2.50;;
23678;SDS011;12016;51.668;6.874;2023-03-14T21:09:08;5.10;;;2.20;;
23678;SDS011;12016;51.668;6.874;2023-03-14T21:15:10;6.03;;;2.20;;
23678;SDS011;12016;51.668;6.874;2023-03-14T21:21:14;5.80;;;2.30;;
23678;SDS011;12016;51.668;6.874;2023-03-14T21:27:17;6.90;;;2.50;;
23678;SDS011;12016;51.668;6.874;2023-03-14T21:33:19;6.63;;;2.38;;
23678;SDS011;12016;51.668;6.874;2023-03-14T21:39:21;8.47;;;2.90;;
23678;SDS011;12016;51.668;6.874;2023-03-14T21:45:24;8.50;;;2.77;;
23678;SDS011;12016;51.668;6.874;2023-03-14T21:51:27;6.57;;;2.47;;
23678;SDS011;12016;51.668;6.874;2023-03-14T21:57:30;7.35;;;2.60;;
23678;SDS011;12016;51.668;6.874;2023-03-14T22:03:33;6.70;;;2.40;;
23678;SDS011;12016;51.668;6.874;2023-03-14T22:09:37;6.77;;;2.50;;
23678;SDS011;12016;51.668;6.874;2023-03-14T22:15:43;8.90;;;2.60;;
23678;SDS011;12016;51.668;6.874;2023-03-14T22:21:47;6.05;;;2.40;;
23678;SDS011;12016;51.668;6.874;2023-03-14T22:27:49;7.53;;;2.73;;
23678;SDS011;12016;51.668;6.874;2023-03-14T22:33:52;7.67;;;3.07;;
23678;SDS011;12016;51.668;6.874;2023-03-14T22:39:54;7.43;;;3.00;;
23678;SDS011;12016;51.668;6.874;2023-03-14T22:46:05;10.10;;;3.00;;
23678;SDS011;12016;51.668;6.874;2023-03-14T22:52:08;8.70;;;2.95;;
23678;SDS011;12016;51.668;6.874;2023-03-14T22:58:10;7.35;;;2.95;;
23678;SDS011;12016;51.668;6.874;2023-03-14T23:04:11;6.85;;;2.80;;
23678;SDS011;12016;51.668;6.874;2023-03-14T23:10:13;7.35;;;2.70;;
23678;SDS011;12016;51.668;6.874;2023-03-14T23:16:15;7.45;;;2.83;;
23678;SDS011;12016;51.668;6.874;2023-03-14T23:22:20;5.93;;;2.33;;
23678;SDS011;12016;51.668;6.874;2023-03-14T23:28:22;7.13;;;2.50;;
23678;SDS011;12016;51.668;6.874;2023-03-14T23:34:24;6.57;;;2.40;;
23678;SDS011;12016;51.668;6.874;2023-03-14T23:40:25;6.77;;;2.33;;
23678;SDS011;12016;51.668;6.874;2023-03-14T23:46:27;7.43;;;2.37;;
23678;SDS011;12016;51.668;6.874;2023-03-14T23:52:31;7.75;;;2.30;;
23678;SDS011;12016;51.668;6.874;2023-03-14T23:58:33;6.35;;;2.60;;
